Elk City, Oklahoma
Current Conditions -  °F | °C
As of 2:34 AM on Friday 19 Dec 2014 (Local Time) from KCSM Reporting Station
Haze Haze  
Wind Chill: 33°   Ceiling: 200
Heat Index: 38°   Visibility: 1mi
Dew Point: 36°   Wind: 7mph
Humidity: 93%   Direction: 20°NNE
Pressure: 30.18"   Gusts: NA
Location:  35.41°N, 99.42°W
Report Text: KCSM 190834Z AUTO 02006KT 1SM BR VV002 03/02 A3018 RMK AO2 T00330022
Loading
Personal Weather Stations






























Interactive Weather Map New forecast layout! Learn more

10-Day Weather Forecast

Advertisements
Track Severe Weather on mobile